createdAt,value
2022-12-13T00:00:14.705Z,-2.02
2022-12-13T00:03:21.599Z,-2.02
2022-12-13T00:06:26.876Z,-1.99
2022-12-13T00:09:32.058Z,-2.08
2022-12-13T00:12:37.040Z,-1.99
2022-12-13T00:15:41.601Z,-1.98
2022-12-13T00:18:52.149Z,-2.05
2022-12-13T00:21:57.628Z,-1.97
2022-12-13T00:25:02.640Z,-2.06
2022-12-13T00:28:08.932Z,-2.07
2022-12-13T00:34:42.994Z,-2.24
2022-12-13T00:37:48.277Z,-2.13
2022-12-13T00:40:54.139Z,-2.16
2022-12-13T00:43:59.897Z,-2.09
2022-12-13T00:47:05.388Z,-2.18
2022-12-13T00:50:23.155Z,-2.30
2022-12-13T00:53:42.600Z,-2.40
2022-12-13T00:56:47.962Z,-2.41
2022-12-13T00:59:53.087Z,-2.41
2022-12-13T01:02:59.619Z,-2.41
2022-12-13T01:06:15.832Z,-2.60
2022-12-13T01:09:23.431Z,-2.74
2022-12-13T01:12:28.497Z,-2.79
2022-12-13T01:15:34.270Z,-2.80
2022-12-13T01:18:40.584Z,-2.81
2022-12-13T01:21:47.371Z,-2.84
2022-12-13T01:24:52.404Z,-2.78
2022-12-13T01:28:00.175Z,-2.86
2022-12-13T01:31:08.560Z,-2.81
2022-12-13T01:34:14.426Z,-2.77
2022-12-13T01:37:26.202Z,-2.76
2022-12-13T01:40:31.446Z,-2.80
2022-12-13T01:43:56.182Z,-2.83
2022-12-13T01:47:01.875Z,-2.75
2022-12-13T01:50:12.927Z,-2.94
2022-12-13T01:53:22.589Z,-2.89
2022-12-13T01:56:30.845Z,-3.06
2022-12-13T01:59:36.566Z,-2.93
2022-12-13T02:02:44.862Z,-3.06
2022-12-13T02:05:56.276Z,-2.95
2022-12-13T02:09:09.170Z,-2.85
2022-12-13T02:12:14.978Z,-2.90
2022-12-13T02:15:20.711Z,-2.97
2022-12-13T02:18:42.429Z,-2.91
2022-12-13T02:21:53.160Z,-2.90
2022-12-13T02:25:10.053Z,-2.99
2022-12-13T02:28:31.705Z,-3.10
2022-12-13T02:31:44.431Z,-3.05
2022-12-13T02:34:53.880Z,-3.00
2022-12-13T02:38:03.438Z,-3.05
2022-12-13T02:41:12.978Z,-3.16
2022-12-13T02:44:22.974Z,-3.25
2022-12-13T02:47:35.951Z,-3.38
2022-12-13T02:50:41.632Z,-3.35
2022-12-13T02:53:47.294Z,-3.38
2022-12-13T02:56:56.483Z,-3.33
2022-12-13T03:00:05.499Z,-3.45
2022-12-13T03:03:24.825Z,-3.55
2022-12-13T03:06:37.690Z,-3.51
2022-12-13T03:09:50.717Z,-3.66
2022-12-13T03:13:18.223Z,-3.56
2022-12-13T03:16:34.316Z,-3.91
2022-12-13T03:19:41.187Z,-3.84
2022-12-13T03:22:46.788Z,-3.97
2022-12-13T03:25:53.990Z,-4.01
2022-12-13T03:28:59.039Z,-4.23
2022-12-13T03:32:07.237Z,-4.24
2022-12-13T03:35:21.963Z,-4.32
2022-12-13T03:38:27.912Z,-4.31
2022-12-13T03:41:33.927Z,-4.21
2022-12-13T03:44:39.029Z,-4.42
2022-12-13T03:47:45.773Z,-4.23
2022-12-13T03:50:53.986Z,-4.43
2022-12-13T03:54:02.646Z,-4.56
2022-12-13T03:57:08.042Z,-4.36
2022-12-13T04:00:16.496Z,-4.24
2022-12-13T04:03:22.851Z,-4.54
2022-12-13T04:06:32.928Z,-4.72
2022-12-13T04:09:39.443Z,-4.55
2022-12-13T04:13:01.919Z,-4.49
2022-12-13T04:16:07.504Z,-4.51
2022-12-13T04:19:23.183Z,-4.57
2022-12-13T04:22:31.346Z,-4.68
2022-12-13T04:25:36.793Z,-4.72
2022-12-13T04:28:41.462Z,-4.83
2022-12-13T04:31:46.813Z,-4.74
2022-12-13T04:34:52.082Z,-4.86
2022-12-13T04:38:12.111Z,-4.73
2022-12-13T04:41:19.654Z,-4.72
2022-12-13T04:44:28.718Z,-4.74
2022-12-13T04:47:35.127Z,-4.86
2022-12-13T04:50:47.328Z,-4.78
2022-12-13T04:53:54.243Z,-4.82
2022-12-13T04:56:59.390Z,-4.85
2022-12-13T05:00:08.323Z,-4.77
2022-12-13T05:03:14.980Z,-4.87
2022-12-13T05:06:26.763Z,-4.90
2022-12-13T05:09:33.819Z,-5.03
2022-12-13T05:12:38.850Z,-5.07
2022-12-13T05:15:49.424Z,-5.08
2022-12-13T05:18:57.087Z,-5.04
2022-12-13T05:22:05.305Z,-5.13
2022-12-13T05:25:14.683Z,-5.11
2022-12-13T05:28:29.201Z,-5.09
2022-12-13T05:31:36.048Z,-5.10
2022-12-13T05:34:42.159Z,-4.96
2022-12-13T05:37:47.744Z,-5.16
2022-12-13T05:41:05.530Z,-5.24
2022-12-13T05:44:13.614Z,-5.16
2022-12-13T05:47:18.850Z,-5.11
2022-12-13T05:50:32.855Z,-5.30
2022-12-13T05:53:41.558Z,-5.31
2022-12-13T05:56:49.059Z,-5.39
2022-12-13T05:59:54.061Z,-5.36
2022-12-13T06:03:00.890Z,-5.35
2022-12-13T06:06:09.605Z,-5.26
2022-12-13T06:09:14.391Z,-5.44
2022-12-13T06:12:31.474Z,-5.38
2022-12-13T06:16:01.260Z,-5.40
2022-12-13T06:19:09.795Z,-5.39
2022-12-13T06:22:15.822Z,-5.20
2022-12-13T06:25:30.995Z,-5.30
2022-12-13T06:28:42.858Z,-5.29
2022-12-13T06:31:48.623Z,-5.20
2022-12-13T06:34:53.857Z,-5.16
2022-12-13T06:38:03.455Z,-5.33
2022-12-13T06:41:20.629Z,-5.18
2022-12-13T06:44:30.308Z,-5.21
2022-12-13T06:47:35.632Z,-5.25
2022-12-13T06:50:40.583Z,-5.16
2022-12-13T06:53:49.448Z,-5.23
2022-12-13T06:56:55.376Z,-5.20
2022-12-13T07:00:10.155Z,-5.27
2022-12-13T07:03:17.575Z,-5.31
2022-12-13T07:06:25.917Z,-5.22
2022-12-13T07:09:41.306Z,-5.24
2022-12-13T07:12:46.384Z,-5.27
2022-12-13T07:16:01.180Z,-5.27
2022-12-13T07:19:22.878Z,-5.21
2022-12-13T07:22:29.677Z,-5.12
2022-12-13T07:25:40.004Z,-5.13
2022-12-13T07:28:45.099Z,-5.12
2022-12-13T07:31:51.254Z,-5.17
2022-12-13T07:34:56.737Z,-5.13
2022-12-13T07:38:01.742Z,-5.03
2022-12-13T07:41:08.089Z,-5.08
2022-12-13T07:44:13.688Z,-4.99
2022-12-13T07:47:20.091Z,-4.97
2022-12-13T07:50:29.149Z,-5.05
2022-12-13T07:53:46.735Z,-5.01
2022-12-13T07:56:51.740Z,-5.00
2022-12-13T07:59:56.804Z,-5.03
2022-12-13T08:03:04.001Z,-4.94
2022-12-13T08:06:10.752Z,-5.14
2022-12-13T08:09:15.800Z,-5.06
2022-12-13T08:12:22.329Z,-5.06
2022-12-13T08:15:28.172Z,-5.05
2022-12-13T08:18:34.794Z,-4.98
2022-12-13T08:21:54.563Z,-4.91
2022-12-13T08:25:00.407Z,-4.96
2022-12-13T08:28:05.806Z,-4.80
2022-12-13T08:31:14.544Z,-4.91
2022-12-13T08:34:21.065Z,-4.96
2022-12-13T08:37:26.394Z,-5.04
2022-12-13T08:40:31.432Z,-4.92
2022-12-13T08:43:36.867Z,-4.76
2022-12-13T08:46:42.102Z,-5.00
2022-12-13T08:49:50.842Z,-4.98
2022-12-13T08:52:55.981Z,-4.87
2022-12-13T08:56:04.612Z,-4.97
2022-12-13T08:59:10.507Z,-4.87
2022-12-13T09:02:18.762Z,-4.85
2022-12-13T09:05:32.997Z,-4.93
2022-12-13T09:08:40.557Z,-4.77
2022-12-13T09:11:46.297Z,-4.96
2022-12-13T09:14:51.513Z,-4.71
2022-12-13T09:17:57.312Z,-5.10
2022-12-13T09:21:13.897Z,-5.18
2022-12-13T09:24:28.569Z,-5.04
2022-12-13T09:27:41.702Z,-5.11
2022-12-13T09:30:47.230Z,-5.04
2022-12-13T09:33:56.177Z,-5.54
2022-12-13T09:37:03.214Z,-5.56
2022-12-13T09:40:16.058Z,-5.86
2022-12-13T09:43:42.688Z,-5.67
2022-12-13T09:46:49.215Z,-5.81
2022-12-13T09:49:54.616Z,-5.91
2022-12-13T09:53:01.663Z,-5.61
2022-12-13T09:56:10.393Z,-5.61
2022-12-13T09:59:25.584Z,-5.80
2022-12-13T10:02:32.341Z,-5.55
2022-12-13T10:05:41.599Z,-5.85
2022-12-13T10:08:50.152Z,-5.55
2022-12-13T10:12:02.309Z,-5.64
2022-12-13T10:15:08.657Z,-5.86
2022-12-13T10:18:19.720Z,-5.81
2022-12-13T10:21:29.503Z,-5.91
2022-12-13T10:28:10.499Z,-6.08
2022-12-13T10:31:21.042Z,-5.65
2022-12-13T10:34:28.793Z,-5.61
2022-12-13T10:37:34.214Z,-5.59
2022-12-13T10:40:44.075Z,-6.01
2022-12-13T10:44:22.632Z,-5.62
2022-12-13T10:47:27.712Z,-5.78
2022-12-13T10:50:33.528Z,-6.02
2022-12-13T10:53:46.678Z,-5.97
2022-12-13T10:57:00.071Z,-5.74
2022-12-13T11:00:33.556Z,-5.79
2022-12-13T11:03:39.299Z,-5.43
2022-12-13T11:06:46.503Z,-5.79
2022-12-13T11:09:52.703Z,-5.97
2022-12-13T11:13:19.489Z,-5.79
2022-12-13T11:16:28.428Z,-5.88
2022-12-13T11:19:37.821Z,-5.84
2022-12-13T11:22:43.790Z,-5.55
2022-12-13T11:25:57.136Z,-5.66
2022-12-13T11:29:19.061Z,-5.73
2022-12-13T11:32:35.602Z,-5.55
2022-12-13T11:35:50.239Z,-5.84
2022-12-13T11:39:05.621Z,-6.11
2022-12-13T11:42:16.686Z,-5.96
2022-12-13T11:45:26.193Z,-5.94
2022-12-13T11:48:38.474Z,-5.91
2022-12-13T11:51:46.535Z,-6.12
2022-12-13T11:54:56.211Z,-6.39
2022-12-13T11:58:06.143Z,-6.28
2022-12-13T12:01:15.985Z,-6.54
2022-12-13T12:04:28.889Z,-6.63
2022-12-13T12:08:05.231Z,-6.64
2022-12-13T12:11:13.479Z,-6.49
2022-12-13T12:14:23.785Z,-6.61
2022-12-13T12:17:33.621Z,-6.36
2022-12-13T12:20:54.024Z,-6.55
2022-12-13T12:24:09.733Z,-6.55
2022-12-13T12:27:25.016Z,-6.92
2022-12-13T12:30:39.105Z,-6.79
2022-12-13T12:33:52.264Z,-7.06
2022-12-13T12:37:10.068Z,-6.87
2022-12-13T12:41:14.604Z,-6.85
2022-12-13T12:44:19.664Z,-6.89
2022-12-13T12:47:57.881Z,-7.01
2022-12-13T12:51:00.581Z,-7.05
2022-12-13T12:54:20.695Z,-6.90
2022-12-13T12:57:32.892Z,-7.24
2022-12-13T13:00:45.063Z,-7.12
2022-12-13T13:03:52.669Z,-7.35
2022-12-13T13:07:23.032Z,-7.24
2022-12-13T13:10:31.099Z,-7.06
2022-12-13T13:13:46.874Z,-7.23
2022-12-13T13:16:52.235Z,-7.04
2022-12-13T13:20:17.582Z,-7.20
2022-12-13T13:23:39.425Z,-7.31
2022-12-13T13:26:48.632Z,-7.15
2022-12-13T13:29:53.956Z,-7.36
2022-12-13T13:33:00.083Z,-7.16
2022-12-13T13:36:05.807Z,-7.29
2022-12-13T13:39:17.066Z,-7.28
2022-12-13T13:42:24.426Z,-7.20
2022-12-13T13:45:29.444Z,-7.18
2022-12-13T13:48:57.303Z,-7.38
2022-12-13T13:52:27.280Z,-7.32
2022-12-13T13:55:50.922Z,-7.20
2022-12-13T13:59:27.353Z,-7.24
2022-12-13T14:03:32.916Z,-7.17
2022-12-13T14:07:09.549Z,-7.29
2022-12-13T14:10:23.205Z,-7.28
2022-12-13T14:14:22.488Z,-7.31
2022-12-13T14:18:06.682Z,-7.33
2022-12-13T14:21:27.148Z,-7.29
2022-12-13T14:24:43.411Z,-7.29
2022-12-13T14:27:52.133Z,-7.21
2022-12-13T14:30:57.865Z,-7.30
2022-12-13T14:34:05.048Z,-7.26
2022-12-13T14:37:23.352Z,-7.08
2022-12-13T14:40:32.315Z,-6.95
2022-12-13T14:43:37.877Z,-7.08
2022-12-13T14:46:51.127Z,-7.36
2022-12-13T14:49:57.493Z,-7.32
2022-12-13T14:53:04.290Z,-7.30
2022-12-13T14:56:28.483Z,-7.13
2022-12-13T14:59:34.622Z,-7.04
2022-12-13T15:02:39.307Z,-7.39
2022-12-13T15:05:50.513Z,-7.16
2022-12-13T15:08:57.475Z,-7.07
2022-12-13T15:12:14.775Z,-7.16
2022-12-13T15:15:31.650Z,-7.32
2022-12-13T15:18:36.870Z,-7.23
2022-12-13T15:22:01.736Z,-7.34
2022-12-13T15:25:17.375Z,-7.32
2022-12-13T15:28:29.220Z,-7.23
2022-12-13T15:31:34.576Z,-7.02
2022-12-13T15:34:40.242Z,-7.01
2022-12-13T15:37:47.830Z,-7.36
2022-12-13T15:40:54.512Z,-7.28
2022-12-13T15:44:02.500Z,-7.29
2022-12-13T15:47:28.382Z,-7.24
2022-12-13T15:50:36.198Z,-7.27
2022-12-13T15:53:42.086Z,-7.33
2022-12-13T15:57:01.967Z,-7.35
2022-12-13T16:00:17.052Z,-7.27
2022-12-13T16:03:24.811Z,-7.14
2022-12-13T16:06:30.283Z,-7.15
2022-12-13T16:09:38.322Z,-7.14
2022-12-13T16:12:48.158Z,-7.23
2022-12-13T16:16:00.229Z,-7.28
2022-12-13T16:19:17.852Z,-7.28
2022-12-13T16:22:26.286Z,-7.17
2022-12-13T16:25:33.188Z,-7.26
2022-12-13T16:28:42.413Z,-7.18
2022-12-13T16:31:49.719Z,-7.27
2022-12-13T16:34:55.502Z,-7.26
2022-12-13T16:38:09.094Z,-7.24
2022-12-13T16:41:15.758Z,-7.35
2022-12-13T16:44:24.971Z,-7.40
2022-12-13T16:47:41.929Z,-7.26
2022-12-13T16:50:57.681Z,-7.08
2022-12-13T16:54:04.552Z,-7.09
2022-12-13T16:57:09.990Z,-7.08
2022-12-13T17:00:18.206Z,-7.11
2022-12-13T17:03:25.354Z,-7.04
2022-12-13T17:06:30.573Z,-6.96
2022-12-13T17:09:39.673Z,-6.84
2022-12-13T17:12:46.270Z,-6.84
2022-12-13T17:15:59.342Z,-6.82
2022-12-13T17:19:05.282Z,-6.82
2022-12-13T17:22:12.287Z,-6.78
2022-12-13T17:25:17.349Z,-6.81
2022-12-13T17:28:22.362Z,-6.84
2022-12-13T17:31:34.912Z,-6.84
2022-12-13T17:34:40.578Z,-6.90
2022-12-13T17:37:45.547Z,-6.79
2022-12-13T17:40:55.991Z,-6.84
2022-12-13T17:44:01.628Z,-6.83
2022-12-13T17:47:09.382Z,-6.78
2022-12-13T17:50:15.502Z,-6.79
2022-12-13T17:53:20.609Z,-6.97
2022-12-13T17:56:25.598Z,-6.90
2022-12-13T17:59:30.556Z,-7.07
2022-12-13T18:02:38.262Z,-6.93
2022-12-13T18:05:44.564Z,-7.07
2022-12-13T18:08:49.675Z,-6.95
2022-12-13T18:11:54.887Z,-6.86
2022-12-13T18:14:59.986Z,-6.83
2022-12-13T18:18:11.688Z,-6.80
2022-12-13T18:21:18.983Z,-6.86
2022-12-13T18:24:24.255Z,-6.92
2022-12-13T18:27:28.911Z,-6.83
2022-12-13T18:30:34.741Z,-6.88
2022-12-13T18:33:47.163Z,-6.85
2022-12-13T18:36:55.565Z,-6.86
2022-12-13T18:40:07.929Z,-6.79
2022-12-13T18:43:15.756Z,-7.01
2022-12-13T18:46:23.578Z,-6.85
2022-12-13T18:49:34.191Z,-6.90
2022-12-13T18:52:59.119Z,-7.04
2022-12-13T18:56:11.586Z,-7.10
2022-12-13T18:59:25.315Z,-7.03
2022-12-13T19:02:34.610Z,-7.04
2022-12-13T19:05:43.004Z,-7.14
2022-12-13T19:08:57.187Z,-7.01
2022-12-13T19:12:12.569Z,-7.24
2022-12-13T19:18:46.589Z,-7.13
2022-12-13T19:21:54.565Z,-7.05
2022-12-13T19:25:00.581Z,-7.01
2022-12-13T19:28:06.516Z,-7.10
2022-12-13T19:31:14.742Z,-7.02
2022-12-13T19:34:20.500Z,-7.10
2022-12-13T19:37:27.332Z,-7.08
2022-12-13T19:40:32.338Z,-7.12
2022-12-13T19:43:39.405Z,-7.05
2022-12-13T19:46:44.476Z,-7.15
2022-12-13T19:49:49.569Z,-7.07
2022-12-13T19:52:55.812Z,-7.09
2022-12-13T19:56:00.986Z,-7.11
2022-12-13T19:59:06.225Z,-7.03
2022-12-13T20:02:15.518Z,-7.05
2022-12-13T20:05:20.808Z,-7.01
2022-12-13T20:08:27.423Z,-7.05
2022-12-13T20:11:32.627Z,-7.06
2022-12-13T20:14:37.602Z,-7.06
2022-12-13T20:17:43.816Z,-7.03
2022-12-13T20:21:10.613Z,-6.99
2022-12-13T20:24:16.226Z,-7.17
2022-12-13T20:27:21.186Z,-7.14
2022-12-13T20:30:25.830Z,-7.27
2022-12-13T20:33:30.753Z,-7.27
2022-12-13T20:36:37.703Z,-7.23
2022-12-13T20:39:45.279Z,-7.18
2022-12-13T20:42:50.955Z,-7.35
2022-12-13T20:45:55.639Z,-7.23
2022-12-13T20:49:02.819Z,-7.28
2022-12-13T20:52:08.174Z,-7.34
2022-12-13T20:55:21.066Z,-7.34
2022-12-13T20:58:27.509Z,-7.28
2022-12-13T21:01:34.864Z,-7.34
2022-12-13T21:04:40.249Z,-7.26
2022-12-13T21:08:02.763Z,-7.27
2022-12-13T21:11:27.130Z,-7.26
2022-12-13T21:14:33.543Z,-7.53
2022-12-13T21:17:39.502Z,-7.51
2022-12-13T21:20:44.439Z,-7.47
2022-12-13T21:23:49.583Z,-7.52
2022-12-13T21:26:56.612Z,-7.45
2022-12-13T21:30:01.843Z,-7.47
2022-12-13T21:33:06.820Z,-7.44
2022-12-13T21:36:13.176Z,-7.46
2022-12-13T21:39:20.128Z,-7.57
2022-12-13T21:42:27.394Z,-7.60
2022-12-13T21:45:32.675Z,-7.58
2022-12-13T21:48:38.322Z,-7.54
2022-12-13T21:51:47.920Z,-7.51
2022-12-13T21:55:15.139Z,-7.49
2022-12-13T21:58:38.137Z,-7.48
2022-12-13T22:02:06.836Z,-7.53
2022-12-13T22:05:22.082Z,-7.54
2022-12-13T22:08:28.773Z,-7.58
2022-12-13T22:11:35.622Z,-7.59
2022-12-13T22:14:42.535Z,-7.64
2022-12-13T22:17:47.280Z,-7.69
2022-12-13T22:20:58.051Z,-7.74
2022-12-13T22:24:03.360Z,-7.70
2022-12-13T22:27:08.882Z,-7.80
2022-12-13T22:30:18.705Z,-7.67
2022-12-13T22:33:27.090Z,-7.63
2022-12-13T22:36:37.108Z,-7.70
2022-12-13T22:39:42.704Z,-7.82
2022-12-13T22:42:50.733Z,-7.81
2022-12-13T22:46:07.359Z,-7.83
2022-12-13T22:49:13.774Z,-7.91
2022-12-13T22:52:19.489Z,-8.00
2022-12-13T22:55:24.508Z,-7.98
2022-12-13T22:58:32.224Z,-7.94
2022-12-13T23:01:42.531Z,-8.14
2022-12-13T23:04:53.130Z,-8.06
2022-12-13T23:07:58.623Z,-8.13
2022-12-13T23:11:24.434Z,-8.16
2022-12-13T23:14:33.362Z,-8.15
2022-12-13T23:17:40.248Z,-8.10
2022-12-13T23:20:48.549Z,-8.17
2022-12-13T23:23:55.068Z,-8.09
2022-12-13T23:27:00.443Z,-7.92
2022-12-13T23:30:06.613Z,-8.03
2022-12-13T23:33:14.010Z,-8.00
2022-12-13T23:36:20.914Z,-8.31
2022-12-13T23:39:25.975Z,-8.03
2022-12-13T23:42:31.905Z,-7.95
2022-12-13T23:45:37.741Z,-8.01
2022-12-13T23:48:44.776Z,-8.00
2022-12-13T23:51:49.886Z,-7.97
2022-12-13T23:54:55.495Z,-8.11
2022-12-13T23:58:03.573Z,-8.62
